createdAt,value
2023-03-17T00:00:21.540Z,99.90
2023-03-17T00:02:51.584Z,99.90
2023-03-17T00:05:26.675Z,99.90
2023-03-17T00:07:55.340Z,99.90
2023-03-17T00:10:27.000Z,99.90
2023-03-17T00:12:55.741Z,99.90
2023-03-17T00:15:26.861Z,99.90
2023-03-17T00:17:56.313Z,99.90
2023-03-17T00:20:32.537Z,99.90
2023-03-17T00:23:04.262Z,99.90
2023-03-17T00:25:34.628Z,99.90
2023-03-17T00:28:03.592Z,99.90
2023-03-17T00:30:30.961Z,99.90
2023-03-17T00:32:58.989Z,99.90
2023-03-17T00:35:29.912Z,99.90
2023-03-17T00:37:58.159Z,99.90
2023-03-17T00:40:31.374Z,99.90
2023-03-17T00:43:05.718Z,99.90
2023-03-17T00:45:33.061Z,99.90
2023-03-17T00:48:00.827Z,99.90
2023-03-17T00:50:29.238Z,99.90
2023-03-17T00:52:58.299Z,99.90
2023-03-17T00:55:26.866Z,99.90
2023-03-17T00:57:53.989Z,99.90
2023-03-17T01:00:29.816Z,99.90
2023-03-17T01:02:57.911Z,99.90
2023-03-17T01:05:26.236Z,99.90
2023-03-17T01:07:57.568Z,99.90
2023-03-17T01:10:29.056Z,99.90
2023-03-17T01:12:58.963Z,99.90
2023-03-17T01:15:31.694Z,99.90
2023-03-17T01:18:01.608Z,99.90
2023-03-17T01:20:34.513Z,99.90
2023-03-17T01:23:02.539Z,99.90
2023-03-17T01:25:30.461Z,99.90
2023-03-17T01:27:59.721Z,99.90
2023-03-17T01:30:39.388Z,99.90
2023-03-17T01:33:09.879Z,99.90
2023-03-17T01:35:38.485Z,99.90
2023-03-17T01:38:07.087Z,99.90
2023-03-17T01:40:42.545Z,99.90
2023-03-17T01:43:09.614Z,99.90
2023-03-17T01:46:17.401Z,99.90
2023-03-17T01:49:27.484Z,99.90
2023-03-17T01:52:16.690Z,99.90
2023-03-17T01:55:08.633Z,99.90
2023-03-17T01:57:53.591Z,99.90
2023-03-17T02:00:24.342Z,99.90
2023-03-17T02:02:55.782Z,99.90
2023-03-17T02:05:29.925Z,99.90
2023-03-17T02:07:59.782Z,99.90
2023-03-17T02:10:29.913Z,99.90
2023-03-17T02:13:04.034Z,99.90
2023-03-17T02:15:44.678Z,99.90
2023-03-17T02:18:13.795Z,99.90
2023-03-17T02:20:40.826Z,99.90
2023-03-17T02:23:08.138Z,99.90
2023-03-17T02:25:37.505Z,99.90
2023-03-17T02:28:16.379Z,99.90
2023-03-17T02:30:44.991Z,99.90
2023-03-17T02:33:12.386Z,99.90
2023-03-17T02:35:41.343Z,99.90
2023-03-17T02:38:08.508Z,99.90
2023-03-17T02:40:35.575Z,99.90
2023-03-17T02:43:02.749Z,99.90
2023-03-17T02:45:29.896Z,99.90
2023-03-17T02:47:57.693Z,99.90
2023-03-17T02:50:28.807Z,99.90
2023-03-17T02:52:56.365Z,99.90
2023-03-17T02:55:23.666Z,99.90
2023-03-17T02:57:50.966Z,99.90
2023-03-17T03:00:19.743Z,99.90
2023-03-17T03:02:47.162Z,99.90
2023-03-17T03:05:14.334Z,99.90
2023-03-17T03:07:41.631Z,99.90
2023-03-17T03:10:09.981Z,99.90
2023-03-17T03:12:37.196Z,99.90
2023-03-17T03:15:05.594Z,99.90
2023-03-17T03:17:33.031Z,99.90
2023-03-17T03:20:00.190Z,99.90
2023-03-17T03:22:27.613Z,99.90
2023-03-17T03:24:54.710Z,99.90
2023-03-17T03:27:22.196Z,99.90
2023-03-17T03:29:49.420Z,99.90
2023-03-17T03:32:17.138Z,99.90
2023-03-17T03:34:44.286Z,99.90
2023-03-17T03:37:11.730Z,99.90
2023-03-17T03:39:39.195Z,99.90
2023-03-17T03:42:07.131Z,99.90
2023-03-17T03:44:34.309Z,99.90
2023-03-17T03:47:01.839Z,99.90
2023-03-17T03:49:29.373Z,99.90
2023-03-17T03:51:57.018Z,99.90
2023-03-17T03:54:24.140Z,99.90
2023-03-17T03:56:51.191Z,99.90
2023-03-17T03:59:18.790Z,99.90
2023-03-17T04:01:46.188Z,99.90
2023-03-17T04:04:13.327Z,99.90
2023-03-17T04:06:40.485Z,99.90
2023-03-17T04:09:07.691Z,99.90
2023-03-17T04:11:36.255Z,99.90
2023-03-17T04:14:04.182Z,99.90
2023-03-17T04:16:31.423Z,99.90
2023-03-17T04:18:58.683Z,99.90
2023-03-17T04:21:25.886Z,99.90
2023-03-17T04:23:53.016Z,99.90
2023-03-17T04:26:20.229Z,99.90
2023-03-17T04:28:47.803Z,99.90
2023-03-17T04:31:15.196Z,99.90
2023-03-17T04:33:42.424Z,99.90
2023-03-17T04:36:20.850Z,99.90
2023-03-17T04:38:48.091Z,99.90
2023-03-17T04:41:15.926Z,99.90
2023-03-17T04:43:43.100Z,99.90
2023-03-17T04:46:11.005Z,99.90
2023-03-17T04:48:38.228Z,99.90
2023-03-17T04:51:06.123Z,99.90
2023-03-17T04:53:35.082Z,99.90
2023-03-17T04:56:02.142Z,99.90
2023-03-17T04:58:31.037Z,99.90
2023-03-17T05:00:59.102Z,99.90
2023-03-17T05:03:28.142Z,99.90
2023-03-17T05:05:58.990Z,99.90
2023-03-17T05:08:28.377Z,99.90
2023-03-17T05:10:57.425Z,99.90
2023-03-17T05:13:26.078Z,99.90
2023-03-17T05:15:55.690Z,99.90
2023-03-17T05:18:25.241Z,99.90
2023-03-17T05:20:52.843Z,99.90
2023-03-17T05:23:20.665Z,99.90
2023-03-17T05:25:50.978Z,99.90
2023-03-17T05:28:20.072Z,99.90
2023-03-17T05:30:50.865Z,99.90
2023-03-17T05:33:18.641Z,99.90
2023-03-17T05:35:46.538Z,99.90
2023-03-17T05:38:16.128Z,99.90
2023-03-17T05:40:44.922Z,99.90
2023-03-17T05:43:12.299Z,99.90
2023-03-17T05:45:39.381Z,99.90
2023-03-17T05:48:06.581Z,99.90
2023-03-17T05:50:34.060Z,99.90
2023-03-17T05:53:01.793Z,99.90
2023-03-17T05:55:29.064Z,99.90
2023-03-17T05:57:56.206Z,99.90
2023-03-17T06:00:23.782Z,99.90
2023-03-17T06:02:51.642Z,99.90
2023-03-17T06:05:18.920Z,99.90
2023-03-17T06:07:54.622Z,99.90
2023-03-17T06:10:24.359Z,99.90
2023-03-17T06:12:52.070Z,99.90
2023-03-17T06:15:20.243Z,99.90
2023-03-17T06:17:47.446Z,99.90
2023-03-17T06:20:15.062Z,99.90
2023-03-17T06:23:00.313Z,99.90
2023-03-17T06:25:30.001Z,99.90
2023-03-17T06:27:57.755Z,99.90
2023-03-17T06:30:24.946Z,99.90
2023-03-17T06:32:52.288Z,99.90
2023-03-17T06:35:19.539Z,99.90
2023-03-17T06:37:46.881Z,99.90
2023-03-17T06:40:15.031Z,99.90
2023-03-17T06:42:42.348Z,99.90
2023-03-17T06:45:10.448Z,99.90
2023-03-17T06:47:38.311Z,99.90
2023-03-17T06:50:07.147Z,99.90
2023-03-17T06:52:34.260Z,99.90
2023-03-17T06:55:01.359Z,99.90
2023-03-17T06:57:28.588Z,99.90
2023-03-17T06:59:55.768Z,99.90
2023-03-17T07:02:23.114Z,99.90
2023-03-17T07:04:50.858Z,99.90
2023-03-17T07:07:20.399Z,99.90
2023-03-17T07:09:48.066Z,99.90
2023-03-17T07:12:15.859Z,99.90
2023-03-17T07:14:45.537Z,99.90
2023-03-17T07:17:14.775Z,99.90
2023-03-17T07:19:42.453Z,99.90
2023-03-17T07:22:12.645Z,99.90
2023-03-17T07:24:42.130Z,99.90
2023-03-17T07:27:09.697Z,99.90
2023-03-17T07:29:36.851Z,99.90
2023-03-17T07:32:06.600Z,99.90
2023-03-17T07:34:34.488Z,99.90
2023-03-17T07:37:03.084Z,99.90
2023-03-17T07:39:30.245Z,99.90
2023-03-17T07:41:57.387Z,99.90
2023-03-17T07:44:26.072Z,99.90
2023-03-17T07:46:53.657Z,99.90
2023-03-17T07:49:38.095Z,99.90
2023-03-17T07:52:10.460Z,99.90
2023-03-17T07:54:41.537Z,99.90
2023-03-17T07:57:11.058Z,99.90
2023-03-17T07:59:38.424Z,99.90
2023-03-17T08:02:05.714Z,99.90
2023-03-17T08:04:33.542Z,99.90
2023-03-17T08:07:01.462Z,99.90
2023-03-17T08:09:28.617Z,99.90
2023-03-17T08:11:55.860Z,99.90
2023-03-17T08:14:23.050Z,99.90
2023-03-17T08:16:51.509Z,99.90
2023-03-17T08:19:18.642Z,99.90
2023-03-17T08:21:45.757Z,99.90
2023-03-17T08:24:12.820Z,99.90
2023-03-17T08:26:39.970Z,99.90
2023-03-17T08:29:08.196Z,99.90
2023-03-17T08:31:35.915Z,99.90
2023-03-17T08:34:04.522Z,99.90
2023-03-17T08:36:31.640Z,99.90
2023-03-17T08:39:01.817Z,99.90
2023-03-17T08:41:29.136Z,99.90
2023-03-17T08:43:58.166Z,99.90
2023-03-17T08:46:30.916Z,99.90
2023-03-17T08:48:59.870Z,99.90
2023-03-17T08:51:31.274Z,99.90
2023-03-17T08:53:59.800Z,99.90
2023-03-17T08:56:27.781Z,99.90
2023-03-17T08:58:55.303Z,99.90
2023-03-17T09:01:24.421Z,99.90
2023-03-17T09:03:54.848Z,99.90
2023-03-17T09:06:23.676Z,99.90
2023-03-17T09:08:55.403Z,99.90
2023-03-17T09:11:27.227Z,99.90
2023-03-17T09:13:55.609Z,99.90
2023-03-17T09:16:24.075Z,99.90
2023-03-17T09:18:51.897Z,99.90
2023-03-17T09:21:19.083Z,99.90
2023-03-17T09:23:47.001Z,99.90
2023-03-17T09:26:14.295Z,99.90
2023-03-17T09:28:42.926Z,99.90
2023-03-17T09:31:12.533Z,99.90
2023-03-17T09:33:41.733Z,99.90
2023-03-17T09:36:10.941Z,99.90
2023-03-17T09:38:39.581Z,99.90
2023-03-17T09:41:24.588Z,99.90
2023-03-17T09:44:11.521Z,99.90
2023-03-17T09:47:28.818Z,99.90
2023-03-17T09:49:59.821Z,99.90
2023-03-17T09:52:31.350Z,99.90
2023-03-17T09:54:59.152Z,99.90
2023-03-17T09:57:38.197Z,99.90
2023-03-17T10:00:20.339Z,99.90
2023-03-17T10:02:47.606Z,97.20
2023-03-17T10:05:23.572Z,95.70
2023-03-17T10:08:30.809Z,97.90
2023-03-17T10:11:44.208Z,99.90
2023-03-17T10:14:35.680Z,99.90
2023-03-17T10:17:16.461Z,94.40
2023-03-17T10:20:16.128Z,94.90
2023-03-17T10:23:08.334Z,92.10
2023-03-17T10:25:37.568Z,93.80
2023-03-17T10:28:16.687Z,91.80
2023-03-17T10:30:44.111Z,91.90
2023-03-17T10:33:12.609Z,92.10
2023-03-17T10:35:40.670Z,92.70
2023-03-17T10:38:23.711Z,92.40
2023-03-17T10:41:00.023Z,92.80
2023-03-17T10:43:38.788Z,94.50
2023-03-17T10:46:25.830Z,91.20
2023-03-17T10:49:11.178Z,90.30
2023-03-17T10:51:41.682Z,89.80
2023-03-17T10:54:17.833Z,92.40
2023-03-17T10:56:49.869Z,89.60
2023-03-17T10:59:33.249Z,87.80
2023-03-17T11:02:05.456Z,91.60
2023-03-17T11:04:42.672Z,87.70
2023-03-17T11:07:27.894Z,90.50
2023-03-17T11:10:01.803Z,87.60
2023-03-17T11:12:40.570Z,88.10
2023-03-17T11:15:20.251Z,86.70
2023-03-17T11:18:00.494Z,89.10
2023-03-17T11:20:48.543Z,85.50
2023-03-17T11:23:46.745Z,87.60
2023-03-17T11:26:31.822Z,90.70
2023-03-17T11:29:42.604Z,81.90
2023-03-17T11:32:41.585Z,82.90
2023-03-17T11:35:28.443Z,81.80
2023-03-17T11:38:29.524Z,79.70
2023-03-17T11:41:20.740Z,82.90
2023-03-17T11:44:19.466Z,77.50
2023-03-17T11:47:20.586Z,78.90
2023-03-17T11:50:26.990Z,76.60
2023-03-17T11:53:43.502Z,75.00
2023-03-17T11:56:46.926Z,74.30
2023-03-17T11:59:37.291Z,78.10
2023-03-17T12:02:32.662Z,74.00
2023-03-17T12:05:23.897Z,78.10
2023-03-17T12:08:06.681Z,77.60
2023-03-17T12:10:48.038Z,74.60
2023-03-17T12:13:51.725Z,72.50
2023-03-17T12:16:41.799Z,78.00
2023-03-17T12:19:42.571Z,70.40
2023-03-17T12:22:28.440Z,71.70
2023-03-17T12:25:22.920Z,72.80
2023-03-17T12:28:23.062Z,72.70
2023-03-17T12:31:08.590Z,72.00
2023-03-17T12:33:43.832Z,68.70
2023-03-17T12:36:15.427Z,71.70
2023-03-17T12:39:16.834Z,68.20
2023-03-17T12:42:27.239Z,68.90
2023-03-17T12:45:15.835Z,69.70
2023-03-17T12:48:03.330Z,72.90
2023-03-17T12:51:09.066Z,74.00
2023-03-17T12:53:41.918Z,72.40
2023-03-17T12:56:28.941Z,72.50
2023-03-17T12:59:02.573Z,73.40
2023-03-17T13:01:32.527Z,76.00
2023-03-17T13:04:26.460Z,76.00
2023-03-17T13:07:20.077Z,74.90
2023-03-17T13:10:20.400Z,76.40
2023-03-17T13:12:47.437Z,76.10
2023-03-17T13:15:41.019Z,73.80
2023-03-17T13:18:17.277Z,76.30
2023-03-17T13:20:57.894Z,77.40
2023-03-17T13:23:58.435Z,75.60
2023-03-17T13:27:01.767Z,76.00
2023-03-17T13:29:35.539Z,79.20
2023-03-17T13:32:27.052Z,77.80
2023-03-17T13:35:00.423Z,76.70
2023-03-17T13:37:30.343Z,77.90
2023-03-17T13:40:18.418Z,79.30
2023-03-17T13:43:03.600Z,76.30
2023-03-17T13:45:44.081Z,75.40
2023-03-17T13:48:30.176Z,79.50
2023-03-17T13:51:08.970Z,82.40
2023-03-17T13:53:55.776Z,84.50
2023-03-17T13:56:37.628Z,80.40
2023-03-17T13:59:17.887Z,79.10
2023-03-17T14:02:00.848Z,80.20
2023-03-17T14:04:53.755Z,81.40
2023-03-17T14:07:27.062Z,82.80
2023-03-17T14:10:02.763Z,80.80
2023-03-17T14:12:45.438Z,79.40
2023-03-17T14:15:31.870Z,82.10
2023-03-17T14:18:16.113Z,81.50
2023-03-17T14:21:01.595Z,82.70
2023-03-17T14:23:30.020Z,84.70
2023-03-17T14:25:59.946Z,85.10
2023-03-17T14:28:33.935Z,88.10
2023-03-17T14:31:07.667Z,86.60
2023-03-17T14:33:40.915Z,88.00
2023-03-17T14:36:14.189Z,87.00
2023-03-17T14:38:50.571Z,85.50
2023-03-17T14:41:20.806Z,89.30
2023-03-17T14:43:49.014Z,90.70
2023-03-17T14:46:25.218Z,91.60
2023-03-17T14:49:25.372Z,90.60
2023-03-17T14:51:53.660Z,90.30
2023-03-17T14:54:25.514Z,87.10
2023-03-17T14:57:02.159Z,86.80
2023-03-17T14:59:40.689Z,90.40
2023-03-17T15:02:35.754Z,89.30
2023-03-17T15:05:30.934Z,90.70
2023-03-17T15:07:58.271Z,93.00
2023-03-17T15:10:34.398Z,93.10
2023-03-17T15:13:04.785Z,94.50
2023-03-17T15:15:41.642Z,97.00
2023-03-17T15:18:14.538Z,99.90
2023-03-17T15:20:45.921Z,99.90
2023-03-17T15:23:20.323Z,99.90
2023-03-17T15:25:55.986Z,99.90
2023-03-17T15:28:29.752Z,99.90
2023-03-17T15:31:13.336Z,99.90
2023-03-17T15:33:42.265Z,99.90
2023-03-17T15:36:31.425Z,99.90
2023-03-17T15:38:59.290Z,99.90
2023-03-17T15:41:26.556Z,99.90
2023-03-17T15:43:53.752Z,99.90
2023-03-17T15:46:31.172Z,99.90
2023-03-17T15:48:58.700Z,99.90
2023-03-17T15:51:25.921Z,99.90
2023-03-17T15:53:53.069Z,99.90
2023-03-17T15:56:21.542Z,99.90
2023-03-17T15:58:52.329Z,99.90
2023-03-17T16:01:20.889Z,99.90
2023-03-17T16:03:49.127Z,99.90
2023-03-17T16:06:22.562Z,99.90
2023-03-17T16:08:50.732Z,99.90
2023-03-17T16:11:28.147Z,99.90
2023-03-17T16:13:57.114Z,99.90
2023-03-17T16:16:42.653Z,99.90
2023-03-17T16:19:22.107Z,99.90
2023-03-17T16:21:51.611Z,99.90
2023-03-17T16:24:22.995Z,99.90
2023-03-17T16:26:52.428Z,99.90
2023-03-17T16:29:21.364Z,99.90
2023-03-17T16:31:51.022Z,99.90
2023-03-17T16:34:22.079Z,99.90
2023-03-17T16:36:51.045Z,99.90
2023-03-17T16:39:22.564Z,99.90
2023-03-17T16:41:50.774Z,99.90
2023-03-17T16:44:21.341Z,99.90
2023-03-17T16:46:49.432Z,99.90
2023-03-17T16:49:19.583Z,99.90
2023-03-17T16:51:48.201Z,99.90
2023-03-17T16:54:16.532Z,99.90
2023-03-17T16:56:43.709Z,99.90
2023-03-17T16:59:19.776Z,99.90
2023-03-17T17:01:46.973Z,99.90
2023-03-17T17:04:14.122Z,99.90
2023-03-17T17:06:41.355Z,99.90
2023-03-17T17:09:08.425Z,99.90
2023-03-17T17:11:36.981Z,99.90
2023-03-17T17:14:04.210Z,99.90
2023-03-17T17:16:36.756Z,99.90
2023-03-17T17:19:14.280Z,99.90
2023-03-17T17:21:41.333Z,99.90
2023-03-17T17:24:14.664Z,99.90
2023-03-17T17:26:41.911Z,99.90
2023-03-17T17:29:10.077Z,99.90
2023-03-17T17:31:37.261Z,99.90
2023-03-17T17:34:04.393Z,99.90
2023-03-17T17:36:31.590Z,99.90
2023-03-17T17:38:58.859Z,99.90
2023-03-17T17:41:25.980Z,99.90
2023-03-17T17:43:53.992Z,99.90
2023-03-17T17:46:23.304Z,99.90
2023-03-17T17:48:50.631Z,99.90
2023-03-17T17:51:17.755Z,99.90
2023-03-17T17:53:45.180Z,99.90
2023-03-17T17:56:17.825Z,99.90
2023-03-17T17:58:45.802Z,99.90
2023-03-17T18:01:14.283Z,99.90
2023-03-17T18:03:42.975Z,99.90
2023-03-17T18:06:11.822Z,99.90
2023-03-17T18:08:40.329Z,99.90
2023-03-17T18:11:07.660Z,99.90
2023-03-17T18:13:36.257Z,99.90
2023-03-17T18:16:04.169Z,99.90
2023-03-17T18:18:32.625Z,99.90
2023-03-17T18:21:00.058Z,99.90
2023-03-17T18:23:29.736Z,99.90
2023-03-17T18:26:01.643Z,99.90
2023-03-17T18:28:28.864Z,99.90
2023-03-17T18:31:03.828Z,99.90
2023-03-17T18:33:32.451Z,99.90
2023-03-17T18:36:00.211Z,99.90
2023-03-17T18:38:27.369Z,99.90
2023-03-17T18:40:54.435Z,99.90
2023-03-17T18:43:22.069Z,99.90
2023-03-17T18:45:49.532Z,99.90
2023-03-17T18:48:16.645Z,99.90
2023-03-17T18:50:43.716Z,99.90
2023-03-17T18:53:11.318Z,99.90
2023-03-17T18:55:38.554Z,99.90
2023-03-17T18:58:06.434Z,99.90
2023-03-17T19:00:34.375Z,99.90
2023-03-17T19:03:01.470Z,99.90
2023-03-17T19:05:29.137Z,99.90
2023-03-17T19:07:56.292Z,99.90
2023-03-17T19:10:23.370Z,99.90
2023-03-17T19:12:53.402Z,99.90
2023-03-17T19:15:21.706Z,99.90
2023-03-17T19:17:50.410Z,99.90
2023-03-17T19:20:18.926Z,99.90
2023-03-17T19:22:47.625Z,99.90
2023-03-17T19:25:16.577Z,99.90
2023-03-17T19:27:43.730Z,99.90
2023-03-17T19:30:12.306Z,99.90
2023-03-17T19:32:39.697Z,99.90
2023-03-17T19:35:08.416Z,99.90
2023-03-17T19:37:36.164Z,99.90
2023-03-17T19:40:04.737Z,99.90
2023-03-17T19:42:31.808Z,99.90
2023-03-17T19:44:58.994Z,99.90
2023-03-17T19:47:26.347Z,99.90
2023-03-17T19:49:53.866Z,99.90
2023-03-17T19:52:21.259Z,99.90
2023-03-17T19:54:48.815Z,99.90
2023-03-17T19:57:19.118Z,99.90
2023-03-17T19:59:46.724Z,99.90
2023-03-17T20:02:15.639Z,99.90
2023-03-17T20:04:43.087Z,99.90
2023-03-17T20:07:10.797Z,99.90
2023-03-17T20:09:39.315Z,99.90
2023-03-17T20:12:06.731Z,99.90
2023-03-17T20:14:34.095Z,99.90
2023-03-17T20:17:01.235Z,99.90
2023-03-17T20:19:29.230Z,99.90
2023-03-17T20:21:58.568Z,99.90
2023-03-17T20:24:27.170Z,99.90
2023-03-17T20:26:56.903Z,99.90
2023-03-17T20:29:26.066Z,99.90
2023-03-17T20:31:53.223Z,99.90
2023-03-17T20:34:21.589Z,99.90
2023-03-17T20:36:48.995Z,99.90
2023-03-17T20:39:19.930Z,99.90
2023-03-17T20:41:52.377Z,99.90
2023-03-17T20:44:20.987Z,99.90
2023-03-17T20:46:48.138Z,99.90
2023-03-17T20:49:18.054Z,99.90
2023-03-17T20:51:46.343Z,99.90
2023-03-17T20:54:13.668Z,99.90
2023-03-17T20:56:41.205Z,99.90
2023-03-17T20:59:09.734Z,99.90
2023-03-17T21:01:38.951Z,99.90
2023-03-17T21:04:09.213Z,99.90
2023-03-17T21:06:39.689Z,99.90
2023-03-17T21:09:06.836Z,99.90
2023-03-17T21:11:34.200Z,99.90
2023-03-17T21:14:03.451Z,99.90
2023-03-17T21:16:31.008Z,99.90
2023-03-17T21:18:59.257Z,99.90
2023-03-17T21:21:27.367Z,99.90
2023-03-17T21:23:58.218Z,99.90
2023-03-17T21:26:25.622Z,99.90
2023-03-17T21:28:52.786Z,99.90
2023-03-17T21:31:20.181Z,99.90
2023-03-17T21:33:50.770Z,99.90
2023-03-17T21:36:18.540Z,99.90
2023-03-17T21:38:45.671Z,99.90
2023-03-17T21:41:34.323Z,99.90
2023-03-17T21:44:03.190Z,99.90
2023-03-17T21:46:31.920Z,99.90
2023-03-17T21:49:00.474Z,99.90
2023-03-17T21:51:28.555Z,99.90
2023-03-17T21:53:57.616Z,99.90
2023-03-17T21:56:25.133Z,99.90
2023-03-17T21:58:52.339Z,99.90
2023-03-17T22:01:21.802Z,99.90
2023-03-17T22:03:52.125Z,99.90
2023-03-17T22:06:20.739Z,99.90
2023-03-17T22:08:48.896Z,99.90
2023-03-17T22:11:18.990Z,99.90
2023-03-17T22:13:47.024Z,99.90
2023-03-17T22:16:16.304Z,99.90
2023-03-17T22:18:43.772Z,99.90
2023-03-17T22:21:11.329Z,99.90
2023-03-17T22:23:42.419Z,99.90
2023-03-17T22:26:14.163Z,99.90
2023-03-17T22:28:43.230Z,99.90
2023-03-17T22:31:24.067Z,99.90
2023-03-17T22:33:56.757Z,99.90
2023-03-17T22:36:26.018Z,99.90
2023-03-17T22:38:53.600Z,99.90
2023-03-17T22:41:24.614Z,99.90
2023-03-17T22:43:52.074Z,99.90
2023-03-17T22:46:20.015Z,99.90
2023-03-17T22:48:47.558Z,99.90
2023-03-17T22:51:19.493Z,99.90
2023-03-17T22:53:46.846Z,99.90
2023-03-17T22:56:15.824Z,99.90
2023-03-17T22:58:44.354Z,99.90
2023-03-17T23:01:13.492Z,99.90
2023-03-17T23:03:42.042Z,99.90
2023-03-17T23:06:11.509Z,99.90
2023-03-17T23:08:39.932Z,99.90
2023-03-17T23:11:15.054Z,99.90
2023-03-17T23:13:42.332Z,99.90
2023-03-17T23:16:09.968Z,99.90
2023-03-17T23:18:37.271Z,99.90
2023-03-17T23:21:06.913Z,99.90
2023-03-17T23:23:36.024Z,99.90
2023-03-17T23:26:03.492Z,99.90
2023-03-17T23:28:30.656Z,99.90
2023-03-17T23:30:58.275Z,99.90
2023-03-17T23:33:25.880Z,99.90
2023-03-17T23:35:53.385Z,99.90
2023-03-17T23:38:21.498Z,99.90
2023-03-17T23:40:49.893Z,99.90
2023-03-17T23:43:17.169Z,99.90
2023-03-17T23:45:45.514Z,99.90
2023-03-17T23:48:12.974Z,99.90
2023-03-17T23:50:41.399Z,99.90
2023-03-17T23:53:11.784Z,99.90
2023-03-17T23:55:40.152Z,99.90
2023-03-17T23:58:07.820Z,99.90
